createdAt,value
2023-02-03T00:00:17.141Z,102335.47
2023-02-03T00:02:43.900Z,102331.66
2023-02-03T00:05:10.447Z,102340.13
2023-02-03T00:07:39.343Z,102345.63
2023-02-03T00:10:07.453Z,102340.69
2023-02-03T00:12:34.825Z,102347.72
2023-02-03T00:15:01.363Z,102354.41
2023-02-03T00:17:30.849Z,102365.41
2023-02-03T00:19:57.422Z,102359.09
2023-02-03T00:22:24.052Z,102358.84
2023-02-03T00:24:50.691Z,102355.84
2023-02-03T00:27:17.390Z,102354.19
2023-02-03T00:29:43.883Z,102356.22
2023-02-03T00:32:10.609Z,102359.13
2023-02-03T00:34:37.344Z,102373.41
2023-02-03T00:37:04.002Z,102383.44
2023-02-03T00:39:30.938Z,102376.28
2023-02-03T00:41:57.583Z,102379.59
2023-02-03T00:44:24.226Z,102381.97
2023-02-03T00:46:52.542Z,102371.53
2023-02-03T00:49:19.186Z,102346.63
2023-02-03T00:51:46.088Z,102362.69
2023-02-03T00:54:14.190Z,102371.91
2023-02-03T00:56:41.324Z,102376.28
2023-02-03T00:59:11.006Z,102378.91
2023-02-03T01:01:37.615Z,102396.81
2023-02-03T01:04:04.397Z,102385.91
2023-02-03T01:06:33.256Z,102397.44
2023-02-03T01:09:03.251Z,102395.16
2023-02-03T01:11:29.905Z,102396.91
2023-02-03T01:13:56.881Z,102397.88
2023-02-03T01:16:25.634Z,102408.06
2023-02-03T01:18:53.117Z,102412.03
2023-02-03T01:21:24.119Z,102392.25
2023-02-03T01:23:52.114Z,102381.78
2023-02-03T01:26:20.936Z,102370.25
2023-02-03T01:28:52.963Z,102354.75
2023-02-03T01:31:23.938Z,102368.22
2023-02-03T01:33:52.689Z,102372.47
2023-02-03T01:36:19.640Z,102385.91
2023-02-03T01:38:46.870Z,102378.34
2023-02-03T01:41:21.303Z,102383.44
2023-02-03T01:43:50.670Z,102371.78
2023-02-03T01:46:41.818Z,102359.13
2023-02-03T01:49:12.971Z,102364.88
2023-02-03T01:51:42.130Z,102374.09
2023-02-03T01:54:14.940Z,102374.91
2023-02-03T01:56:47.153Z,102372.97
2023-02-03T01:59:19.882Z,102356.63
2023-02-03T02:01:47.538Z,102347.97
2023-02-03T02:04:14.832Z,102338.25
2023-02-03T02:06:41.689Z,102335.78
2023-02-03T02:09:12.532Z,102335.78
2023-02-03T02:11:42.437Z,102329.72
2023-02-03T02:14:09.120Z,102327.09
2023-02-03T02:16:38.589Z,102330.25
2023-02-03T02:19:08.055Z,102343.69
2023-02-03T02:22:06.377Z,102347.53
2023-02-03T02:25:16.138Z,102340.56
2023-02-03T02:28:14.038Z,102331.50
2023-02-03T02:31:06.014Z,102337.81
2023-02-03T02:33:43.099Z,102333.97
2023-02-03T02:36:52.373Z,102331.22
2023-02-03T02:39:46.141Z,102337.69
2023-02-03T02:42:50.922Z,102351.44
2023-02-03T02:45:26.394Z,102356.94
2023-02-03T02:48:04.912Z,102354.31
2023-02-03T02:50:37.352Z,102341.69
2023-02-03T02:53:06.353Z,102339.75
2023-02-03T02:55:37.384Z,102339.41
2023-02-03T02:58:10.743Z,102337.75
2023-02-03T03:00:39.173Z,102345.72
2023-02-03T03:03:20.814Z,102336.38
2023-02-03T03:05:57.967Z,102341.34
2023-02-03T03:08:35.206Z,102333.50
2023-02-03T03:11:03.239Z,102330.91
2023-02-03T03:13:34.979Z,102330.47
2023-02-03T03:16:07.656Z,102327.19
2023-02-03T03:18:46.922Z,102329.25
2023-02-03T03:21:27.989Z,102320.19
2023-02-03T03:23:57.524Z,102315.66
2023-02-03T03:26:46.040Z,102313.84
2023-02-03T03:29:29.182Z,102297.91
2023-02-03T03:31:57.023Z,102308.09
2023-02-03T03:34:24.135Z,102321.16
2023-02-03T03:36:56.575Z,102318.41
2023-02-03T03:39:32.891Z,102308.91
2023-02-03T03:42:32.076Z,102307.28
2023-02-03T03:45:10.992Z,102302.59
2023-02-03T03:47:40.874Z,102302.03
2023-02-03T03:50:12.311Z,102303.81
2023-02-03T03:52:40.509Z,102310.03
2023-02-03T03:55:10.678Z,102323.88
2023-02-03T03:57:42.013Z,102317.72
2023-02-03T04:00:14.221Z,102304.00
2023-02-03T04:02:46.499Z,102318.56
2023-02-03T04:05:14.015Z,102331.47
2023-02-03T04:07:46.008Z,102337.50
2023-02-03T04:10:36.806Z,102336.97
2023-02-03T04:13:04.127Z,102325.00
2023-02-03T04:15:31.698Z,102330.06
2023-02-03T04:17:58.950Z,102334.50
2023-02-03T04:20:28.900Z,102336.41
2023-02-03T04:22:56.950Z,102345.47
2023-02-03T04:25:23.864Z,102350.69
2023-02-03T04:27:50.839Z,102330.63
2023-02-03T04:30:21.077Z,102347.25
2023-02-03T04:32:48.546Z,102331.03
2023-02-03T04:35:15.808Z,102348.47
2023-02-03T04:37:44.350Z,102353.72
2023-02-03T04:40:11.804Z,102342.72
2023-02-03T04:42:39.436Z,102341.09
2023-02-03T04:45:07.928Z,102339.41
2023-02-03T04:47:34.789Z,102340.94
2023-02-03T04:50:01.514Z,102332.41
2023-02-03T04:52:28.669Z,102335.44
2023-02-03T04:54:55.361Z,102332.00
2023-02-03T04:57:22.104Z,102340.53
2023-02-03T04:59:48.660Z,102329.94
2023-02-03T05:02:15.365Z,102337.75
2023-02-03T05:04:42.151Z,102307.94
2023-02-03T05:07:09.879Z,102323.47
2023-02-03T05:09:36.598Z,102319.38
2023-02-03T05:12:03.492Z,102319.09
2023-02-03T05:14:30.062Z,102326.50
2023-02-03T05:16:57.056Z,102328.56
2023-02-03T05:19:23.664Z,102334.06
2023-02-03T05:21:50.724Z,102341.59
2023-02-03T05:24:17.527Z,102347.66
2023-02-03T05:26:44.249Z,102346.94
2023-02-03T05:29:11.964Z,102335.03
2023-02-03T05:31:38.676Z,102337.75
2023-02-03T05:34:05.527Z,102362.22
2023-02-03T05:36:32.337Z,102352.06
2023-02-03T05:38:59.238Z,102357.13
2023-02-03T05:41:44.887Z,102364.41
2023-02-03T05:44:11.577Z,102350.25
2023-02-03T05:46:38.222Z,102349.59
2023-02-03T05:49:05.012Z,102346.03
2023-02-03T05:51:31.734Z,102340.81
2023-02-03T05:53:58.966Z,102349.44
2023-02-03T05:56:26.363Z,102338.47
2023-02-03T05:58:53.563Z,102352.06
2023-02-03T06:01:21.125Z,102351.09
2023-02-03T06:03:51.764Z,102356.75
2023-02-03T06:06:18.627Z,102349.59
2023-02-03T06:08:45.403Z,102349.44
2023-02-03T06:11:13.536Z,102354.25
2023-02-03T06:13:40.251Z,102327.03
2023-02-03T06:16:07.440Z,102354.25
2023-02-03T06:18:37.033Z,102352.19
2023-02-03T06:21:03.711Z,102336.66
2023-02-03T06:23:31.523Z,102356.47
2023-02-03T06:26:00.285Z,102349.72
2023-02-03T06:28:27.717Z,102371.41
2023-02-03T06:30:54.441Z,102365.53
2023-02-03T06:33:21.541Z,102357.56
2023-02-03T06:35:48.099Z,102343.00
2023-02-03T06:38:14.713Z,102338.06
2023-02-03T06:40:41.313Z,102326.50
2023-02-03T06:43:09.251Z,102334.19
2023-02-03T06:45:36.036Z,102333.09
2023-02-03T06:48:02.761Z,102332.69
2023-02-03T06:50:30.038Z,102347.81
2023-02-03T06:52:56.904Z,102346.41
2023-02-03T06:55:23.737Z,102329.38
2023-02-03T06:57:50.669Z,102332.41
2023-02-03T07:00:19.675Z,102320.59
2023-02-03T07:02:52.941Z,102343.28
2023-02-03T07:05:19.919Z,102325.94
2023-02-03T07:07:46.862Z,102350.16
2023-02-03T07:10:13.574Z,102351.66
2023-02-03T07:12:40.305Z,102361.97
2023-02-03T07:15:07.506Z,102368.69
2023-02-03T07:17:35.707Z,102379.38
2023-02-03T07:20:04.585Z,102373.22
2023-02-03T07:22:31.171Z,102379.53
2023-02-03T07:24:57.865Z,102378.16
2023-02-03T07:27:25.304Z,102381.31
2023-02-03T07:29:52.098Z,102385.59
2023-02-03T07:32:18.758Z,102387.22
2023-02-03T07:34:45.486Z,102394.66
2023-02-03T07:37:13.195Z,102384.47
2023-02-03T07:39:39.921Z,102384.75
2023-02-03T07:42:06.656Z,102381.34
2023-02-03T07:44:44.101Z,102389.84
2023-02-03T07:47:21.420Z,102396.44
2023-02-03T07:49:48.191Z,102390.81
2023-02-03T07:52:15.340Z,102399.47
2023-02-03T07:54:45.340Z,102382.56
2023-02-03T07:57:12.610Z,102397.53
2023-02-03T07:59:39.639Z,102395.47
2023-02-03T08:02:06.237Z,102399.59
2023-02-03T08:04:37.713Z,102396.56
2023-02-03T08:07:05.083Z,102411.56
2023-02-03T08:09:31.642Z,102382.84
2023-02-03T08:11:59.007Z,102406.06
2023-02-03T08:14:25.649Z,102417.47
2023-02-03T08:16:52.359Z,102413.59
2023-02-03T08:19:19.005Z,102424.34
2023-02-03T08:21:46.094Z,102422.16
2023-02-03T08:24:12.701Z,102416.78
2023-02-03T08:26:39.845Z,102410.56
2023-02-03T08:29:07.232Z,102421.19
2023-02-03T08:31:37.192Z,102418.69
2023-02-03T08:34:03.906Z,102412.78
2023-02-03T08:36:30.514Z,102417.22
2023-02-03T08:38:57.173Z,102429.97
2023-02-03T08:41:23.857Z,102447.69
2023-02-03T08:43:50.907Z,102450.16
2023-02-03T08:46:18.958Z,102455.81
2023-02-03T08:48:46.028Z,102457.31
2023-02-03T08:51:17.207Z,102455.94
2023-02-03T08:53:44.051Z,102454.28
2023-02-03T08:56:12.282Z,102454.28
2023-02-03T08:58:39.763Z,102456.63
2023-02-03T09:01:16.084Z,102458.84
2023-02-03T09:03:43.113Z,102464.59
2023-02-03T09:06:13.000Z,102470.00
2023-02-03T09:08:39.890Z,102472.88
2023-02-03T09:11:14.721Z,102469.31
2023-02-03T09:13:48.073Z,102479.19
2023-02-03T09:16:19.572Z,102472.19
2023-02-03T09:18:46.748Z,102458.72
2023-02-03T09:21:31.698Z,102468.09
2023-02-03T09:24:03.560Z,102454.19
2023-02-03T09:26:30.312Z,102457.38
2023-02-03T09:28:56.947Z,102462.59
2023-02-03T09:31:23.722Z,102471.66
2023-02-03T09:33:50.441Z,102472.78
2023-02-03T09:36:17.073Z,102462.03
2023-02-03T09:38:43.707Z,102470.44
2023-02-03T09:41:11.939Z,102467.38
2023-02-03T09:43:57.875Z,102479.50
2023-02-03T09:46:38.143Z,102497.78
2023-02-03T09:49:24.025Z,102499.03
2023-02-03T09:51:56.822Z,102499.72
2023-02-03T09:54:47.201Z,102506.03
2023-02-03T09:57:27.170Z,102516.78
2023-02-03T09:59:57.086Z,102497.81
2023-02-03T10:03:00.862Z,102507.28
2023-02-03T10:05:49.758Z,102507.53
2023-02-03T10:08:25.391Z,102500.13
2023-02-03T10:11:22.431Z,102503.56
2023-02-03T10:14:27.218Z,102499.69
2023-02-03T10:17:10.169Z,102495.97
2023-02-03T10:20:09.235Z,102478.34
2023-02-03T10:22:48.685Z,102494.56
2023-02-03T10:25:41.470Z,102500.38
2023-02-03T10:28:18.591Z,102502.44
2023-02-03T10:30:54.049Z,102510.69
2023-02-03T10:33:22.185Z,102507.66
2023-02-03T10:36:04.525Z,102509.56
2023-02-03T10:39:07.371Z,102500.06
2023-02-03T10:41:34.532Z,102510.13
2023-02-03T10:44:05.357Z,102510.94
2023-02-03T10:46:39.289Z,102507.78
2023-02-03T10:49:05.998Z,102515.56
2023-02-03T10:51:49.747Z,102509.53
2023-02-03T10:54:34.653Z,102510.72
2023-02-03T10:57:05.996Z,102518.03
2023-02-03T10:59:36.147Z,102519.53
2023-02-03T11:02:20.816Z,102523.25
2023-02-03T11:04:49.091Z,102531.00
2023-02-03T11:07:42.088Z,102529.41
2023-02-03T11:10:40.910Z,102531.00
2023-02-03T11:13:21.484Z,102518.56
2023-02-03T11:16:14.416Z,102536.44
2023-02-03T11:18:57.720Z,102526.75
2023-02-03T11:21:32.554Z,102527.44
2023-02-03T11:24:22.566Z,102515.97
2023-02-03T11:26:59.405Z,102535.44
2023-02-03T11:29:31.915Z,102519.47
2023-02-03T11:32:01.909Z,102534.59
2023-02-03T11:34:30.243Z,102515.66
2023-02-03T11:36:57.462Z,102512.47
2023-02-03T11:39:27.811Z,102514.09
2023-02-03T11:41:55.051Z,102493.31
2023-02-03T11:44:31.392Z,102504.16
2023-02-03T11:47:07.488Z,102507.16
2023-02-03T11:49:49.679Z,102507.16
2023-02-03T11:52:45.044Z,102523.94
2023-02-03T11:55:57.466Z,102511.63
2023-02-03T11:58:48.607Z,102534.56
2023-02-03T12:01:37.272Z,102527.56
2023-02-03T12:04:28.302Z,102517.22
2023-02-03T12:07:07.345Z,102507.25
2023-02-03T12:09:55.824Z,102516.44
2023-02-03T12:12:25.398Z,102500.81
2023-02-03T12:15:25.018Z,102507.00
2023-02-03T12:18:02.292Z,102511.22
2023-02-03T12:20:56.284Z,102508.34
2023-02-03T12:23:47.791Z,102523.94
2023-02-03T12:26:25.051Z,102524.19
2023-02-03T12:29:15.794Z,102530.56
2023-02-03T12:32:06.800Z,102521.47
2023-02-03T12:34:43.176Z,102530.91
2023-02-03T12:37:19.849Z,102525.97
2023-02-03T12:39:53.398Z,102479.94
2023-02-03T12:42:37.958Z,102525.91
2023-02-03T12:45:31.011Z,102514.88
2023-02-03T12:48:12.803Z,102527.72
2023-02-03T12:50:48.536Z,102535.72
2023-02-03T12:53:31.027Z,102532.81
2023-02-03T12:56:10.847Z,102538.28
2023-02-03T12:58:56.806Z,102535.28
2023-02-03T13:01:46.199Z,102540.81
2023-02-03T13:04:26.216Z,102538.28
2023-02-03T13:07:17.437Z,102540.50
2023-02-03T13:09:59.976Z,102534.94
2023-02-03T13:12:31.752Z,102542.78
2023-02-03T13:15:34.971Z,102545.88
2023-02-03T13:18:27.608Z,102544.63
2023-02-03T13:20:54.775Z,102543.28
2023-02-03T13:23:22.669Z,102542.16
2023-02-03T13:26:08.627Z,102549.47
2023-02-03T13:28:57.275Z,102566.91
2023-02-03T13:31:36.007Z,102561.72
2023-02-03T13:34:30.372Z,102567.06
2023-02-03T13:37:15.484Z,102579.22
2023-02-03T13:39:45.508Z,102573.03
2023-02-03T13:42:18.454Z,102569.06
2023-02-03T13:44:50.293Z,102575.28
2023-02-03T13:47:21.627Z,102577.19
2023-02-03T13:50:01.206Z,102574.69
2023-02-03T13:52:45.794Z,102573.56
2023-02-03T13:55:39.947Z,102570.19
2023-02-03T13:58:08.462Z,102588.91
2023-02-03T14:00:43.942Z,102573.03
2023-02-03T14:03:26.052Z,102574.13
2023-02-03T14:05:57.009Z,102574.38
2023-02-03T14:08:29.608Z,102578.28
2023-02-03T14:11:33.295Z,102578.44
2023-02-03T14:14:05.792Z,102571.28
2023-02-03T14:16:37.380Z,102567.28
2023-02-03T14:19:25.062Z,102581.38
2023-02-03T14:21:55.169Z,102580.38
2023-02-03T14:24:22.836Z,102575.00
2023-02-03T14:27:02.477Z,102581.50
2023-02-03T14:29:30.487Z,102593.22
2023-02-03T14:32:02.709Z,102583.81
2023-02-03T14:34:38.672Z,102578.03
2023-02-03T14:37:23.679Z,102578.88
2023-02-03T14:40:18.569Z,102587.16
2023-02-03T14:43:28.289Z,102577.94
2023-02-03T14:46:25.443Z,102584.59
2023-02-03T14:49:13.964Z,102594.38
2023-02-03T14:52:01.929Z,102597.41
2023-02-03T14:54:56.129Z,102596.28
2023-02-03T14:57:47.698Z,102598.91
2023-02-03T15:00:34.783Z,102599.72
2023-02-03T15:03:10.713Z,102604.81
2023-02-03T15:05:48.003Z,102600.41
2023-02-03T15:08:36.769Z,102605.50
2023-02-03T15:11:31.702Z,102594.38
2023-02-03T15:14:34.139Z,102597.53
2023-02-03T15:17:04.513Z,102603.72
2023-02-03T15:19:41.363Z,102604.53
2023-02-03T15:22:23.265Z,102617.25
2023-02-03T15:24:53.038Z,102611.19
2023-02-03T15:27:22.903Z,102596.72
2023-02-03T15:29:49.644Z,102609.41
2023-02-03T15:32:27.317Z,102612.00
2023-02-03T15:34:57.924Z,102624.09
2023-02-03T15:38:01.635Z,102614.50
2023-02-03T15:40:38.207Z,102610.50
2023-02-03T15:43:10.648Z,102622.47
2023-02-03T15:45:46.157Z,102623.56
2023-02-03T15:48:25.763Z,102628.53
2023-02-03T15:50:59.222Z,102646.41
2023-02-03T15:53:45.460Z,102641.19
2023-02-03T15:56:21.996Z,102642.28
2023-02-03T15:58:49.741Z,102640.34
2023-02-03T16:01:23.124Z,102637.47
2023-02-03T16:03:52.856Z,102647.09
2023-02-03T16:06:36.191Z,102640.75
2023-02-03T16:09:06.838Z,102660.16
2023-02-03T16:11:34.700Z,102657.41
2023-02-03T16:14:07.559Z,102660.59
2023-02-03T16:16:36.376Z,102659.91
2023-02-03T16:19:06.450Z,102660.72
2023-02-03T16:21:51.403Z,102671.72
2023-02-03T16:24:47.628Z,102674.50
2023-02-03T16:27:31.399Z,102694.16
2023-02-03T16:30:23.147Z,102685.91
2023-02-03T16:33:27.070Z,102688.38
2023-02-03T16:36:13.544Z,102688.66
2023-02-03T16:39:07.223Z,102689.34
2023-02-03T16:41:52.609Z,102694.84
2023-02-03T16:44:40.166Z,102697.56
2023-02-03T16:47:58.021Z,102696.16
2023-02-03T16:50:43.325Z,102676.34
2023-02-03T16:53:16.606Z,102689.13
2023-02-03T16:55:44.003Z,102692.19
2023-02-03T16:58:13.734Z,102700.44
2023-02-03T17:00:42.572Z,102699.16
2023-02-03T17:03:13.178Z,102706.88
2023-02-03T17:05:42.435Z,102706.31
2023-02-03T17:08:09.455Z,102709.38
2023-02-03T17:10:38.818Z,102713.06
2023-02-03T17:13:06.075Z,102718.97
2023-02-03T17:15:33.290Z,102725.56
2023-02-03T17:18:02.575Z,102733.78
2023-02-03T17:20:29.334Z,102738.25
2023-02-03T17:22:56.058Z,102744.28
2023-02-03T17:25:23.052Z,102752.00
2023-02-03T17:27:49.664Z,102755.03
2023-02-03T17:30:17.404Z,102752.13
2023-02-03T17:32:44.057Z,102755.69
2023-02-03T17:35:11.201Z,102758.88
2023-02-03T17:37:39.178Z,102764.94
2023-02-03T17:54:04.872Z,102796.06
2023-02-03T17:56:33.848Z,102797.97
2023-02-03T17:59:03.532Z,102806.75
2023-02-03T18:01:32.161Z,102802.06
2023-02-03T18:04:01.874Z,102801.63
2023-02-03T18:06:30.111Z,102805.06
2023-02-03T18:09:01.993Z,102811.81
2023-02-03T18:11:30.701Z,102804.75
2023-02-03T18:13:57.561Z,102814.25
2023-02-03T18:16:29.523Z,102829.28
2023-02-03T18:18:58.133Z,102822.78
2023-02-03T18:21:26.535Z,102829.47
2023-02-03T18:23:58.591Z,102830.84
2023-02-03T18:26:28.732Z,102838.28
2023-02-03T18:28:56.525Z,102832.47
2023-02-03T18:31:25.405Z,102846.25
2023-02-03T18:33:52.977Z,102848.72
2023-02-03T18:36:26.590Z,102852.50
2023-02-03T18:38:56.380Z,102852.88
2023-02-03T18:41:26.148Z,102863.31
2023-02-03T18:43:53.184Z,102867.47
2023-02-03T18:46:28.291Z,102863.44
2023-02-03T18:48:56.383Z,102869.34
2023-02-03T18:51:24.070Z,102872.72
2023-02-03T18:53:51.579Z,102870.38
2023-02-03T18:56:23.677Z,102880.16
2023-02-03T18:58:51.198Z,102887.31
2023-02-03T19:01:31.295Z,102887.72
2023-02-03T19:04:03.315Z,102877.00
2023-02-03T19:06:31.786Z,102884.16
2023-02-03T19:08:59.394Z,102896.56
2023-02-03T19:11:30.874Z,102890.34
2023-02-03T19:13:58.578Z,102884.03
2023-02-03T19:16:25.791Z,102897.91
2023-02-03T19:18:53.672Z,102900.34
2023-02-03T19:21:23.437Z,102912.44
2023-02-03T19:23:51.214Z,102919.34
2023-02-03T19:26:18.452Z,102914.13
2023-02-03T19:28:45.963Z,102912.75
2023-02-03T19:31:15.405Z,102922.47
2023-02-03T19:33:43.132Z,102917.00
2023-02-03T19:36:11.683Z,102924.41
2023-02-03T19:38:39.124Z,102922.72
2023-02-03T19:41:07.422Z,102924.94
2023-02-03T19:43:34.205Z,102929.63
2023-02-03T19:46:00.927Z,102923.53
2023-02-03T19:48:28.170Z,102935.31
2023-02-03T19:50:54.896Z,102935.81
2023-02-03T19:53:21.769Z,102932.00
2023-02-03T19:55:48.533Z,102931.44
2023-02-03T19:58:15.503Z,102937.47
2023-02-03T20:00:43.759Z,102942.28
2023-02-03T20:03:10.622Z,102944.63
2023-02-03T20:05:38.300Z,102943.00
2023-02-03T20:08:05.782Z,102941.44
2023-02-03T20:10:32.921Z,102944.66
2023-02-03T20:13:00.717Z,102939.91
2023-02-03T20:15:27.583Z,102942.75
2023-02-03T20:17:54.382Z,102943.94
2023-02-03T20:20:21.530Z,102950.69
2023-02-03T20:22:48.658Z,102951.75
2023-02-03T20:25:17.045Z,102956.00
2023-02-03T20:27:43.740Z,102953.16
2023-02-03T20:30:12.218Z,102955.06
2023-02-03T20:32:39.287Z,102953.16
2023-02-03T20:35:06.775Z,102965.81
2023-02-03T20:37:35.923Z,102966.16
2023-02-03T20:40:06.282Z,102964.38
2023-02-03T20:42:34.280Z,102980.63
2023-02-03T20:45:01.194Z,102985.34
2023-02-03T20:47:27.816Z,102987.72
2023-02-03T20:49:54.662Z,102990.66
2023-02-03T20:52:21.405Z,102997.09
2023-02-03T20:54:48.100Z,102983.78
2023-02-03T20:57:17.755Z,102998.09
2023-02-03T20:59:45.662Z,103002.97
2023-02-03T21:02:22.714Z,103001.66
2023-02-03T21:04:58.404Z,102997.38
2023-02-03T21:07:27.758Z,102993.06
2023-02-03T21:09:54.639Z,102990.94
2023-02-03T21:12:21.673Z,102988.81
2023-02-03T21:14:48.958Z,102985.47
2023-02-03T21:17:26.708Z,102993.66
2023-02-03T21:19:54.991Z,102993.97
2023-02-03T21:22:26.133Z,102997.31
2023-02-03T21:25:00.739Z,103000.47
2023-02-03T21:27:32.600Z,102992.97
2023-02-03T21:30:02.585Z,103000.38
2023-02-03T21:32:40.666Z,103001.56
2023-02-03T21:35:33.753Z,103001.00
2023-02-03T21:38:03.892Z,103006.22
2023-02-03T21:40:35.061Z,103012.31
2023-02-03T21:43:03.436Z,103014.56
2023-02-03T21:45:41.075Z,103008.84
2023-02-03T21:48:26.640Z,103019.97
2023-02-03T21:50:55.569Z,103014.34
2023-02-03T21:53:26.346Z,103016.75
2023-02-03T21:55:53.287Z,103017.69
2023-02-03T21:58:36.178Z,103016.34
2023-02-03T22:01:06.389Z,103019.16
2023-02-03T22:03:40.936Z,103020.25
2023-02-03T22:06:20.728Z,103030.66
2023-02-03T22:08:49.677Z,103029.50
2023-02-03T22:11:19.669Z,103021.69
2023-02-03T22:13:47.490Z,103028.75
2023-02-03T22:16:15.083Z,103035.84
2023-02-03T22:18:41.701Z,103042.16
2023-02-03T22:21:08.236Z,103038.94
2023-02-03T22:23:34.949Z,103043.09
2023-02-03T22:26:01.587Z,103046.63
2023-02-03T22:28:28.170Z,103042.69
2023-02-03T22:30:55.240Z,103043.66
2023-02-03T22:33:21.901Z,103049.97
2023-02-03T22:35:48.626Z,103054.88
2023-02-03T22:38:15.573Z,103048.50
2023-02-03T22:40:42.370Z,103053.28
2023-02-03T22:43:09.051Z,103059.16
2023-02-03T22:45:35.653Z,103063.69
2023-02-03T22:48:02.265Z,103075.25
2023-02-03T22:50:35.337Z,103063.28
2023-02-03T22:53:04.379Z,103079.53
2023-02-03T22:55:32.577Z,103081.19
2023-02-03T22:57:59.511Z,103086.41
2023-02-03T23:00:26.760Z,103082.94
2023-02-03T23:02:53.948Z,103087.31
2023-02-03T23:05:21.960Z,103085.97
2023-02-03T23:07:49.726Z,103087.03
2023-02-03T23:10:31.177Z,103086.81
2023-02-03T23:12:59.122Z,103089.28
2023-02-03T23:15:26.637Z,103085.34
2023-02-03T23:17:53.252Z,103089.41
2023-02-03T23:20:19.969Z,103095.94
2023-02-03T23:22:47.757Z,103101.59
2023-02-03T23:25:14.720Z,103090.84
2023-02-03T23:27:41.641Z,103090.47
2023-02-03T23:30:08.910Z,103089.53
2023-02-03T23:32:35.758Z,103100.47
2023-02-03T23:35:35.147Z,103097.03
2023-02-03T23:38:01.866Z,103100.97
2023-02-03T23:40:29.208Z,103099.63
2023-02-03T23:42:56.213Z,103092.66
2023-02-03T23:45:22.870Z,103094.94
2023-02-03T23:47:49.626Z,103099.13
2023-02-03T23:50:19.070Z,103108.47
2023-02-03T23:52:47.182Z,103108.38
2023-02-03T23:55:20.759Z,103102.94
2023-02-03T23:57:47.973Z,103111.41
